Time;durP1;ratioP1;P1;durP2;ratioP2;P2;SDS_P1;SDS_P2;PMS_P1;PMS_P2;Temp;Humidity;BMP_temperature;BMP_pressure;BME280_temperature;BME280_humidity;BME280_pressure;Samples;Min_cycle;Max_cycle;Signal;HPM_P1;HPM_P2
2023/08/19 00:02:12;;;;;;;10.48;9.30;;;23.10;99.90;;;;;;5074481;28;20032;-69
2023/08/19 00:04:38;;;;;;;9.80;8.73;;;23.10;99.90;;;;;;5074399;28;20028;-69
2023/08/19 00:07:04;;;;;;;11.02;9.43;;;23.00;99.90;;;;;;5072764;28;20030;-68
2023/08/19 00:09:34;;;;;;;11.52;9.45;;;22.90;99.90;;;;;;5079734;28;20036;-69
2023/08/19 00:12:00;;;;;;;11.02;9.65;;;22.90;99.90;;;;;;5074773;28;20055;-69
2023/08/19 00:14:25;;;;;;;12.25;9.27;;;22.90;99.90;;;;;;5065327;28;20852;-69
2023/08/19 00:16:51;;;;;;;10.43;9.35;;;22.90;99.90;;;;;;5069042;28;20028;-68
2023/08/19 00:19:17;;;;;;;11.18;9.38;;;22.80;99.90;;;;;;5074711;28;20032;-69
2023/08/19 00:21:43;;;;;;;10.55;9.23;;;22.80;99.90;;;;;;5075374;28;20028;-69
2023/08/19 00:24:09;;;;;;;11.98;9.20;;;22.80;99.90;;;;;;5074920;28;20454;-69
2023/08/19 00:26:34;;;;;;;10.38;9.18;;;22.80;99.90;;;;;;5073646;28;20016;-68
2023/08/19 00:29:00;;;;;;;9.85;8.85;;;22.70;99.90;;;;;;5074563;28;20543;-69
2023/08/19 00:31:27;;;;;;;10.00;9.00;;;22.70;99.90;;;;;;5071814;28;20488;-68
2023/08/19 00:33:53;;;;;;;10.73;8.93;;;22.70;99.90;;;;;;5070399;28;20119;-69
2023/08/19 00:36:18;;;;;;;10.77;9.00;;;22.70;99.90;;;;;;5070953;28;20173;-69
2023/08/19 00:38:45;;;;;;;10.75;8.90;;;22.60;99.90;;;;;;5069441;28;20028;-68
2023/08/19 00:41:11;;;;;;;10.25;9.23;;;22.60;99.90;;;;;;5073556;28;20032;-68
2023/08/19 00:43:37;;;;;;;10.70;9.65;;;22.60;99.90;;;;;;5074315;28;20504;-68
2023/08/19 00:46:06;;;;;;;11.07;9.93;;;22.60;99.90;;;;;;5072431;28;20028;-68
2023/08/19 00:48:32;;;;;;;11.23;10.00;;;22.60;99.90;;;;;;5072767;28;20131;-69
2023/08/19 00:50:58;;;;;;;11.10;9.65;;;22.60;99.90;;;;;;5068198;28;20113;-68
2023/08/19 00:53:25;;;;;;;10.52;9.50;;;22.60;99.90;;;;;;5070300;28;20070;-69
2023/08/19 00:55:52;;;;;;;11.63;9.95;;;22.60;99.90;;;;;;5072387;28;20115;-69
2023/08/19 00:58:18;;;;;;;10.77;9.20;;;22.60;99.90;;;;;;5070638;28;20044;-68
2023/08/19 01:00:45;;;;;;;11.80;9.90;;;22.60;99.90;;;;;;5070350;28;20025;-68
2023/08/19 01:03:11;;;;;;;15.20;9.60;;;22.60;99.90;;;;;;5073984;28;20064;-69
2023/08/19 01:05:51;;;;;;;11.18;9.77;;;22.60;99.90;;;;;;5069928;28;20071;-69
2023/08/19 01:08:22;;;;;;;11.55;10.35;;;22.60;99.90;;;;;;5071018;28;20020;-68
2023/08/19 01:11:00;;;;;;;12.30;9.20;;;22.60;99.90;;;;;;5088463;28;20028;-69
2023/08/19 01:13:39;;;;;;;11.02;9.60;;;22.60;99.90;;;;;;5064789;28;20033;-68
2023/08/19 01:16:25;;;;;;;10.20;9.20;;;22.60;99.90;;;;;;5069592;28;20017;-69
2023/08/19 01:18:52;;;;;;;11.03;9.60;;;22.60;99.90;;;;;;5076941;28;20035;-69
2023/08/19 01:21:21;;;;;;;10.13;9.13;;;22.60;99.90;;;;;;5079225;28;20278;-68
2023/08/19 01:23:48;;;;;;;12.45;9.55;;;22.60;99.90;;;;;;5066660;28;20040;-68
2023/08/19 01:26:17;;;;;;;12.70;9.85;;;22.60;99.90;;;;;;5075156;28;20123;-68
2023/08/19 01:28:43;;;;;;;11.73;10.35;;;22.60;99.90;;;;;;5072977;28;20037;-68
2023/08/19 01:31:09;;;;;;;10.45;9.35;;;22.60;99.90;;;;;;5075012;28;20373;-68
2023/08/19 01:33:35;;;;;;;10.35;9.35;;;22.60;99.90;;;;;;5072470;28;20353;-68
2023/08/19 01:36:15;;;;;;;10.68;9.35;;;22.50;99.90;;;;;;5073249;28;20391;-68
2023/08/19 01:38:52;;;;;;;14.30;9.73;;;22.60;99.90;;;;;;5073444;28;20024;-68
2023/08/19 01:41:22;;;;;;;11.52;9.30;;;22.60;99.90;;;;;;5072980;28;20142;-68
2023/08/19 01:43:49;;;;;;;10.93;9.75;;;22.60;99.90;;;;;;5070752;28;20029;-68
2023/08/19 01:46:15;;;;;;;10.23;8.60;;;22.50;99.90;;;;;;5075216;28;20485;-68
2023/08/19 01:48:41;;;;;;;12.65;8.95;;;22.50;99.90;;;;;;5077868;28;20151;-68
2023/08/19 01:51:07;;;;;;;10.15;8.68;;;22.50;99.90;;;;;;5075090;28;20723;-68
2023/08/19 01:53:32;;;;;;;11.32;9.43;;;22.40;99.90;;;;;;5077733;28;20119;-69
2023/08/19 01:55:58;;;;;;;11.38;9.75;;;22.40;99.90;;;;;;5079220;28;20027;-68
2023/08/19 01:58:24;;;;;;;10.30;9.23;;;22.40;99.90;;;;;;5077981;28;20463;-68
2023/08/19 02:00:50;;;;;;;10.55;9.45;;;22.40;99.90;;;;;;5076996;28;20098;-68
2023/08/19 02:03:16;;;;;;;11.20;8.98;;;22.40;99.90;;;;;;5077777;28;20511;-68
2023/08/19 02:05:41;;;;;;;11.95;10.10;;;22.30;99.90;;;;;;5077479;28;20024;-68
2023/08/19 02:08:07;;;;;;;12.05;9.05;;;22.40;99.90;;;;;;5074714;28;20622;-68
2023/08/19 02:10:33;;;;;;;18.52;10.98;;;22.30;99.90;;;;;;5076428;28;20020;-68
2023/08/19 02:12:59;;;;;;;12.82;9.93;;;22.30;99.90;;;;;;5090889;28;20551;-68
2023/08/19 02:15:24;;;;;;;11.13;9.77;;;22.30;99.90;;;;;;5081328;28;20028;-68
2023/08/19 02:17:50;;;;;;;10.32;9.23;;;22.30;99.90;;;;;;5072532;28;20017;-68
2023/08/19 02:20:16;;;;;;;11.70;9.00;;;22.30;99.90;;;;;;5075740;28;20025;-68
2023/08/19 02:22:42;;;;;;;10.40;9.40;;;22.30;99.90;;;;;;5076231;28;20642;-68
2023/08/19 02:25:08;;;;;;;10.45;9.45;;;22.30;99.90;;;;;;5069220;28;20110;-69
2023/08/19 02:27:33;;;;;;;12.98;9.77;;;22.20;99.90;;;;;;5072438;28;20114;-68
2023/08/19 02:29:59;;;;;;;14.38;8.90;;;22.20;99.90;;;;;;5075094;28;20032;-68
2023/08/19 02:32:26;;;;;;;10.07;9.07;;;22.20;99.90;;;;;;5078163;28;20111;-68
2023/08/19 02:34:51;;;;;;;15.40;10.07;;;22.20;99.90;;;;;;5070091;28;20032;-68
2023/08/19 02:37:17;;;;;;;12.77;9.75;;;22.20;99.90;;;;;;5076212;28;20020;-68
2023/08/19 02:39:43;;;;;;;10.15;9.15;;;22.20;99.90;;;;;;5092140;28;20559;-68
2023/08/19 02:42:11;;;;;;;10.45;9.40;;;22.10;99.90;;;;;;5069980;28;20676;-68
2023/08/19 02:44:37;;;;;;;10.68;9.60;;;22.10;99.90;;;;;;5086671;28;20036;-68
2023/08/19 02:47:03;;;;;;;11.50;9.93;;;22.10;99.90;;;;;;5076592;28;20436;-68
2023/08/19 02:49:29;;;;;;;13.95;9.95;;;22.10;99.90;;;;;;5071920;28;20043;-68
2023/08/19 02:51:54;;;;;;;13.10;10.85;;;22.00;99.90;;;;;;5089078;28;20035;-68
2023/08/19 02:54:20;;;;;;;12.38;9.45;;;22.00;99.90;;;;;;5075641;28;20133;-68
2023/08/19 02:56:47;;;;;;;10.40;9.30;;;21.90;99.90;;;;;;5087110;28;20142;-68
2023/08/19 02:59:13;;;;;;;12.25;10.27;;;21.90;99.90;;;;;;5070798;28;20024;-68
2023/08/19 03:01:38;;;;;;;10.30;9.20;;;21.90;99.90;;;;;;5069721;28;20408;-68
2023/08/19 03:04:04;;;;;;;10.68;8.85;;;21.90;99.90;;;;;;5073670;28;20174;-68
2023/08/19 03:06:32;;;;;;;10.60;9.48;;;21.90;99.90;;;;;;5072991;28;20027;-68
2023/08/19 03:08:58;;;;;;;11.15;9.93;;;21.80;99.90;;;;;;5073756;28;20037;-68
2023/08/19 03:11:23;;;;;;;11.75;9.65;;;21.80;99.90;;;;;;5074652;28;20016;-68
2023/08/19 03:13:49;;;;;;;11.45;9.75;;;21.80;99.90;;;;;;5088402;28;20028;-67
2023/08/19 03:16:16;;;;;;;11.20;10.02;;;21.80;99.90;;;;;;5071178;28;20020;-68
2023/08/19 03:18:43;;;;;;;10.57;9.30;;;21.80;99.90;;;;;;5074638;28;20080;-68
2023/08/19 03:21:09;;;;;;;11.10;9.30;;;21.80;99.90;;;;;;5073685;28;20028;-68
2023/08/19 03:23:35;;;;;;;10.38;9.27;;;21.80;99.90;;;;;;5076394;28;20028;-68
2023/08/19 03:26:00;;;;;;;11.13;9.73;;;21.80;99.90;;;;;;5089314;28;20411;-68
2023/08/19 03:28:26;;;;;;;9.90;8.90;;;21.70;99.90;;;;;;5074526;28;20620;-68
2023/08/19 03:30:52;;;;;;;10.43;9.13;;;21.80;99.90;;;;;;5088272;28;20028;-68
2023/08/19 03:33:20;;;;;;;11.77;8.35;;;21.80;99.90;;;;;;5071191;28;20027;-68
2023/08/19 03:35:46;;;;;;;11.32;9.57;;;21.80;99.90;;;;;;5085171;28;20024;-68
2023/08/19 03:38:13;;;;;;;11.40;9.07;;;21.80;99.90;;;;;;5074059;28;20545;-68
2023/08/19 03:40:39;;;;;;;10.35;9.32;;;21.70;99.90;;;;;;5071695;28;20024;-68
2023/08/19 03:43:08;;;;;;;9.65;8.65;;;21.70;99.90;;;;;;5069605;28;20038;-68
2023/08/19 03:45:34;;;;;;;10.82;9.40;;;21.70;99.90;;;;;;5070111;28;20024;-68
2023/08/19 03:48:00;;;;;;;10.70;9.13;;;21.60;99.90;;;;;;5071941;28;20440;-68
2023/08/19 03:50:26;;;;;;;12.13;10.15;;;21.70;99.90;;;;;;5074567;28;20062;-69
2023/08/19 03:52:52;;;;;;;12.15;8.80;;;21.70;99.90;;;;;;5070050;28;20077;-68
2023/08/19 03:55:17;;;;;;;15.30;9.10;;;21.70;99.90;;;;;;5071331;28;20024;-68
2023/08/19 03:57:43;;;;;;;10.35;9.10;;;21.70;99.90;;;;;;5084187;28;20023;-68
2023/08/19 04:00:10;;;;;;;9.90;8.90;;;21.70;99.90;;;;;;5073172;28;20039;-69
2023/08/19 04:02:45;;;;;;;12.57;9.57;;;21.60;99.90;;;;;;5069057;28;20143;-68
2023/08/19 04:05:12;;;;;;;11.20;9.35;;;21.60;99.90;;;;;;5091361;28;20695;-68
2023/08/19 04:07:37;;;;;;;10.13;8.82;;;21.60;99.90;;;;;;5075962;28;20537;-68
2023/08/19 04:10:04;;;;;;;10.63;9.52;;;21.60;99.90;;;;;;5073881;28;20115;-68
2023/08/19 04:12:30;;;;;;;10.48;9.38;;;21.60;99.90;;;;;;5075233;28;20502;-68
2023/08/19 04:14:56;;;;;;;10.23;9.23;;;21.60;99.90;;;;;;5067696;28;20036;-68
2023/08/19 04:17:22;;;;;;;9.93;8.93;;;21.60;99.90;;;;;;5077981;28;20731;-68
2023/08/19 04:19:50;;;;;;;12.32;9.30;;;21.70;99.90;;;;;;5075423;28;20035;-68
2023/08/19 04:22:16;;;;;;;10.75;9.65;;;21.70;99.90;;;;;;5076881;28;20148;-68
2023/08/19 04:24:42;;;;;;;10.45;8.63;;;21.70;99.90;;;;;;5071705;28;20105;-68
2023/08/19 04:27:08;;;;;;;11.77;9.07;;;21.80;99.90;;;;;;5073522;28;20029;-68
2023/08/19 04:29:34;;;;;;;10.35;9.20;;;21.80;99.90;;;;;;5090161;28;21057;-68
2023/08/19 04:32:02;;;;;;;9.10;8.20;;;21.90;99.90;;;;;;5064743;28;20111;-68
2023/08/19 04:34:31;;;;;;;9.75;8.73;;;21.90;99.90;;;;;;5075581;28;20024;-68
2023/08/19 04:37:00;;;;;;;9.55;8.55;;;22.00;99.90;;;;;;5072967;28;20098;-68
2023/08/19 04:39:26;;;;;;;11.15;9.68;;;22.00;99.90;;;;;;5078159;28;20066;-69
2023/08/19 04:41:56;;;;;;;10.40;9.40;;;22.10;99.90;;;;;;5070111;28;20032;-68
2023/08/19 04:44:23;;;;;;;14.63;9.60;;;22.10;99.90;;;;;;5073212;28;20059;-68
2023/08/19 04:46:49;;;;;;;11.60;10.15;;;22.10;99.90;;;;;;5073876;28;20054;-68
2023/08/19 04:49:16;;;;;;;11.05;9.18;;;22.10;99.90;;;;;;5076087;28;20024;-69
2023/08/19 04:51:43;;;;;;;13.57;10.60;;;22.10;99.90;;;;;;5088114;28;20396;-68
2023/08/19 04:54:09;;;;;;;11.57;9.45;;;22.20;99.90;;;;;;5073289;28;20028;-68
2023/08/19 04:56:35;;;;;;;11.40;8.93;;;22.20;99.90;;;;;;5074146;28;20040;-69
2023/08/19 04:59:01;;;;;;;10.48;9.30;;;22.20;99.90;;;;;;5091093;28;20135;-68
2023/08/19 05:01:29;;;;;;;11.43;9.45;;;22.30;99.90;;;;;;5074567;28;20030;-68
2023/08/19 05:03:55;;;;;;;13.45;10.13;;;22.30;99.90;;;;;;5075430;28;20595;-68
2023/08/19 05:06:23;;;;;;;10.65;9.27;;;22.40;99.90;;;;;;5073756;28;20041;-68
2023/08/19 05:08:49;;;;;;;14.80;9.55;;;22.40;99.90;;;;;;5074167;28;20395;-68
2023/08/19 05:11:14;;;;;;;10.32;9.23;;;22.50;99.90;;;;;;5076090;28;20150;-68
2023/08/19 05:13:42;;;;;;;11.60;9.88;;;22.50;99.90;;;;;;5080532;28;20028;-68
2023/08/19 05:16:11;;;;;;;11.40;9.85;;;22.60;99.90;;;;;;5090682;28;20400;-68
2023/08/19 05:18:37;;;;;;;11.93;9.70;;;22.60;99.90;;;;;;5078378;28;20028;-69
2023/08/19 05:21:03;;;;;;;13.50;9.95;;;22.60;99.90;;;;;;5072922;28;20033;-68
2023/08/19 05:23:29;;;;;;;11.15;9.98;;;22.60;99.90;;;;;;5072846;28;20290;-68
2023/08/19 05:25:54;;;;;;;11.18;10.00;;;22.60;99.90;;;;;;5077213;28;20029;-68
2023/08/19 05:28:20;;;;;;;10.90;9.82;;;22.60;99.90;;;;;;5078324;28;20032;-68
2023/08/19 05:30:46;;;;;;;10.98;8.98;;;22.70;99.90;;;;;;5075752;28;20447;-68
2023/08/19 05:33:12;;;;;;;12.30;10.07;;;22.70;99.90;;;;;;5074776;28;20054;-68
2023/08/19 05:35:38;;;;;;;11.48;10.10;;;22.70;99.90;;;;;;5077308;28;20063;-68
2023/08/19 05:38:04;;;;;;;13.13;10.27;;;22.70;99.90;;;;;;5077875;28;20822;-68
2023/08/19 05:40:29;;;;;;;11.98;9.85;;;22.70;99.90;;;;;;5079493;28;20024;-69
2023/08/19 05:42:55;;;;;;;11.23;9.60;;;22.70;99.90;;;;;;5089432;28;20553;-69
2023/08/19 05:45:21;;;;;;;10.77;9.30;;;22.70;99.90;;;;;;5073480;28;20033;-69
2023/08/19 05:47:46;;;;;;;10.43;9.20;;;22.60;99.90;;;;;;5080654;28;20039;-68
2023/08/19 05:50:12;;;;;;;10.65;9.50;;;22.70;99.90;;;;;;5078479;28;20032;-68
2023/08/19 05:52:38;;;;;;;10.35;9.35;;;22.60;99.90;;;;;;5077666;28;20032;-68
2023/08/19 05:55:04;;;;;;;10.38;9.13;;;22.60;99.90;;;;;;5075224;28;20037;-69
2023/08/19 05:57:30;;;;;;;10.25;9.02;;;22.60;99.90;;;;;;5077809;28;20138;-69
2023/08/19 05:59:56;;;;;;;11.95;9.90;;;22.60;99.90;;;;;;5077262;28;20091;-69
2023/08/19 06:02:21;;;;;;;11.48;10.15;;;22.50;99.90;;;;;;5077273;28;20071;-68
2023/08/19 06:04:47;;;;;;;11.75;9.98;;;22.50;99.90;;;;;;5073386;28;20711;-68
2023/08/19 06:07:15;;;;;;;11.07;9.95;;;22.50;99.90;;;;;;5076479;28;20057;-68
2023/08/19 06:09:40;;;;;;;11.00;9.70;;;22.50;99.90;;;;;;5074331;28;20111;-68
2023/08/19 06:12:07;;;;;;;12.13;9.77;;;22.40;99.90;;;;;;5074774;28;20276;-68
2023/08/19 06:14:32;;;;;;;13.38;10.00;;;22.40;99.90;;;;;;5078617;28;20027;-69
2023/08/19 06:16:58;;;;;;;12.10;9.98;;;22.40;99.90;;;;;;5075142;28;20074;-68
2023/08/19 06:19:24;;;;;;;10.43;9.43;;;22.40;99.90;;;;;;5077958;28;20059;-68
2023/08/19 06:21:50;;;;;;;11.88;10.13;;;22.50;99.90;;;;;;5077200;28;20511;-69
2023/08/19 06:24:17;;;;;;;14.05;10.15;;;22.60;99.90;;;;;;5078635;28;20020;-69
2023/08/19 06:26:42;;;;;;;10.70;9.48;;;22.60;99.90;;;;;;5073901;28;20040;-69
2023/08/19 06:29:08;;;;;;;14.88;10.80;;;22.70;99.90;;;;;;5075187;28;20081;-69
2023/08/19 06:31:34;;;;;;;11.25;10.05;;;22.90;99.90;;;;;;5073772;28;20036;-69
2023/08/19 06:34:01;;;;;;;11.80;10.60;;;23.00;99.90;;;;;;5074664;28;20139;-69
2023/08/19 06:36:28;;;;;;;13.63;9.85;;;23.10;99.90;;;;;;5078361;28;20028;-69
2023/08/19 06:39:03;;;;;;;13.30;10.80;;;23.20;99.90;;;;;;5074132;28;20108;-68
2023/08/19 06:41:32;;;;;;;11.30;10.20;;;23.30;99.90;;;;;;5075157;28;20038;-68
2023/08/19 06:44:01;;;;;;;12.32;10.30;;;23.40;99.90;;;;;;5073407;28;20032;-69
2023/08/19 06:46:28;;;;;;;11.02;9.73;;;23.50;99.90;;;;;;5076919;28;20407;-69
2023/08/19 06:48:54;;;;;;;13.63;11.63;;;23.60;99.90;;;;;;5074315;28;20070;-69
2023/08/19 06:51:20;;;;;;;11.90;10.68;;;23.70;99.90;;;;;;5077201;28;20038;-68
2023/08/19 06:53:46;;;;;;;11.75;10.50;;;23.70;99.90;;;;;;5073554;28;20426;-69
2023/08/19 06:56:24;;;;;;;11.57;10.48;;;23.80;99.90;;;;;;5076720;28;20025;-69
2023/08/19 06:58:59;;;;;;;11.65;10.30;;;23.80;99.90;;;;;;5071810;28;20032;-69
2023/08/19 07:01:30;;;;;;;12.25;10.95;;;23.90;99.90;;;;;;5076933;28;20028;-69
2023/08/19 07:03:56;;;;;;;11.48;10.27;;;24.00;99.90;;;;;;5073170;28;20120;-69
2023/08/19 07:06:23;;;;;;;12.25;10.95;;;24.10;99.90;;;;;;5076492;28;20661;-69
2023/08/19 07:08:50;;;;;;;11.57;10.38;;;24.10;99.90;;;;;;5073868;28;20078;-69
2023/08/19 07:11:16;;;;;;;13.50;11.55;;;24.30;99.90;;;;;;5074865;28;20368;-69
2023/08/19 07:13:43;;;;;;;13.23;10.88;;;24.50;99.90;;;;;;5071910;28;20039;-69
2023/08/19 07:16:12;;;;;;;11.45;10.23;;;24.60;99.90;;;;;;5075790;28;20024;-68
2023/08/19 07:18:40;;;;;;;11.82;10.57;;;24.70;99.90;;;;;;5089111;28;20031;-68
2023/08/19 07:21:10;;;;;;;12.43;10.63;;;24.70;99.90;;;;;;5069932;28;20024;-68
2023/08/19 07:23:39;;;;;;;13.88;11.15;;;24.80;99.90;;;;;;5067171;28;20025;-69
2023/08/19 07:26:05;;;;;;;11.63;10.27;;;24.80;99.90;;;;;;5073717;28;20048;-68
2023/08/19 07:28:32;;;;;;;12.27;11.00;;;24.80;99.90;;;;;;5075474;28;20125;-68
2023/08/19 07:30:58;;;;;;;18.05;12.02;;;24.80;99.90;;;;;;5076455;28;20032;-69
2023/08/19 07:33:24;;;;;;;12.00;10.75;;;24.90;99.90;;;;;;5079882;28;20027;-69
2023/08/19 07:35:50;;;;;;;12.05;10.85;;;24.90;99.90;;;;;;5079524;28;20032;-68
2023/08/19 07:38:16;;;;;;;13.93;10.90;;;24.90;99.90;;;;;;5077214;28;20033;-69
2023/08/19 07:40:41;;;;;;;13.45;11.27;;;25.00;99.90;;;;;;5073121;28;20143;-69
2023/08/19 07:43:07;;;;;;;11.90;10.63;;;25.10;99.90;;;;;;5072488;28;20589;-69
2023/08/19 07:45:33;;;;;;;13.13;11.25;;;25.20;99.90;;;;;;5071150;28;20028;-68
2023/08/19 07:47:59;;;;;;;12.90;11.38;;;25.30;99.90;;;;;;5076399;28;20032;-69
2023/08/19 07:50:24;;;;;;;11.23;10.05;;;25.40;99.90;;;;;;5077690;28;20062;-69
2023/08/19 07:52:50;;;;;;;12.27;11.00;;;25.50;99.90;;;;;;5091390;28;20115;-69
2023/08/19 07:55:16;;;;;;;11.55;10.35;;;25.50;99.90;;;;;;5069754;28;20063;-69
2023/08/19 07:57:42;;;;;;;12.10;10.90;;;25.50;99.90;;;;;;5075058;28;20057;-69
2023/08/19 08:00:09;;;;;;;12.55;11.32;;;25.60;99.90;;;;;;5072139;28;20043;-69
2023/08/19 08:02:41;;;;;;;11.70;10.52;;;25.70;99.90;;;;;;5069430;28;20032;-69
2023/08/19 08:05:07;;;;;;;11.20;10.10;;;25.80;99.90;;;;;;5074233;28;20043;-69
2023/08/19 08:07:32;;;;;;;11.63;10.43;;;25.80;99.90;;;;;;5075709;28;20527;-69
2023/08/19 08:09:58;;;;;;;12.52;11.23;;;25.90;99.90;;;;;;5074834;28;20099;-68
2023/08/19 08:12:24;;;;;;;11.75;10.40;;;26.00;99.90;;;;;;5072025;28;20031;-68
2023/08/19 08:14:50;;;;;;;11.13;9.98;;;26.10;99.90;;;;;;5058135;28;20041;-71
2023/08/19 08:17:16;;;;;;;13.98;11.52;;;26.10;99.90;;;;;;5074147;28;20032;-70
2023/08/19 08:19:41;;;;;;;12.80;9.85;;;26.20;99.90;;;;;;5073719;28;20020;-71
2023/08/19 08:22:07;;;;;;;11.57;10.38;;;26.30;99.90;;;;;;5076311;28;20037;-71
2023/08/19 08:24:33;;;;;;;11.00;9.90;;;26.30;99.90;;;;;;5072078;28;20031;-69
2023/08/19 08:26:59;;;;;;;12.20;10.88;;;26.30;99.90;;;;;;5076274;28;20334;-71
2023/08/19 08:29:25;;;;;;;11.65;10.48;;;26.40;99.90;;;;;;5077544;28;20066;-71
2023/08/19 08:31:50;;;;;;;12.27;10.13;;;26.50;99.90;;;;;;5076275;28;20059;-71
2023/08/19 08:34:16;;;;;;;10.07;9.07;;;26.50;99.90;;;;;;5074785;28;20059;-71
2023/08/19 08:36:42;;;;;;;13.23;9.50;;;26.60;99.90;;;;;;5078382;28;20121;-71
2023/08/19 08:39:08;;;;;;;11.40;10.20;;;26.70;99.90;;;;;;5078092;28;20036;-71
2023/08/19 08:41:39;;;;;;;9.70;8.70;;;26.90;99.90;;;;;;5075970;28;20115;-71
2023/08/19 08:44:06;;;;;;;11.23;9.23;;;27.00;99.90;;;;;;5074359;28;20078;-70
2023/08/19 08:46:36;;;;;;;11.02;9.35;;;27.00;99.90;;;;;;5075085;28;20124;-70
2023/08/19 08:49:05;;;;;;;9.48;8.43;;;27.10;99.90;;;;;;5075983;28;20082;-71
2023/08/19 08:51:31;;;;;;;9.32;8.07;;;27.20;99.90;;;;;;5071979;28;20031;-71
2023/08/19 08:53:57;;;;;;;9.30;8.30;;;27.30;99.90;;;;;;5071645;28;20024;-72
2023/08/19 08:56:23;;;;;;;8.90;8.07;;;27.40;99.90;;;;;;5077254;28;20112;-70
2023/08/19 08:58:49;;;;;;;11.00;8.40;;;27.50;99.90;;;;;;5075287;28;20028;-70
2023/08/19 09:01:17;;;;;;;9.00;7.97;;;27.50;99.90;;;;;;5079433;28;20032;-71
2023/08/19 09:03:46;;;;;;;9.43;8.43;;;27.50;99.90;;;;;;5075477;28;20032;-71
2023/08/19 09:06:16;;;;;;;9.07;7.50;;;27.60;99.90;;;;;;5074861;28;20028;-72
2023/08/19 09:08:59;;;;;;;9.90;7.70;;;27.70;99.90;;;;;;5078554;28;20412;-71
2023/08/19 09:11:27;;;;;;;8.23;7.43;;;27.80;99.90;;;;;;5079558;28;20028;-72
2023/08/19 09:14:07;;;;;;;9.63;7.72;;;27.90;99.90;;;;;;5070865;28;20500;-72
2023/08/19 09:16:33;;;;;;;9.57;7.90;;;28.00;99.90;;;;;;5090902;28;20039;-71
2023/08/19 09:18:58;;;;;;;10.68;7.65;;;28.10;99.90;;;;;;5076948;28;20463;-72
2023/08/19 09:21:25;;;;;;;8.40;6.75;;;28.20;99.90;;;;;;5076827;28;20035;-72
2023/08/19 09:23:50;;;;;;;8.77;7.88;;;28.40;99.90;;;;;;5075290;28;20035;-71
2023/08/19 09:26:19;;;;;;;10.85;7.88;;;28.40;99.90;;;;;;5076758;28;20037;-72
2023/08/19 09:28:45;;;;;;;8.68;7.78;;;28.60;99.90;;;;;;5075856;28;20027;-72
2023/08/19 09:31:20;;;;;;;8.32;7.53;;;28.70;99.90;;;;;;5077478;28;20082;-72
2023/08/19 09:33:47;;;;;;;8.55;7.75;;;28.80;99.40;;;;;;5074978;28;20112;-71
2023/08/19 09:36:13;;;;;;;8.45;7.47;;;28.90;99.90;;;;;;5078040;28;20028;-71
2023/08/19 09:38:40;;;;;;;9.68;8.20;;;29.00;99.80;;;;;;5073780;28;20024;-72
2023/08/19 09:41:06;;;;;;;8.73;7.82;;;29.10;99.90;;;;;;5081131;28;20071;-77
2023/08/19 09:43:33;;;;;;;8.77;7.95;;;29.10;99.10;;;;;;5082529;28;20143;-72
2023/08/19 09:45:59;;;;;;;9.32;7.97;;;29.20;99.50;;;;;;5071707;28;20021;-71
2023/08/19 09:48:25;;;;;;;9.55;8.20;;;29.30;99.30;;;;;;5066748;28;20034;-71
2023/08/19 09:50:51;;;;;;;8.88;7.22;;;29.50;99.10;;;;;;5073811;28;20066;-72
2023/08/19 09:53:18;;;;;;;8.55;7.57;;;29.50;98.80;;;;;;5074378;28;20036;-72
2023/08/19 09:55:48;;;;;;;8.57;7.60;;;29.60;98.10;;;;;;5070557;28;20020;-72
2023/08/19 09:58:14;;;;;;;8.75;7.88;;;29.60;97.90;;;;;;5077238;28;20028;-71
2023/08/19 10:00:40;;;;;;;9.10;7.72;;;29.70;97.20;;;;;;5074325;28;20043;-70
2023/08/19 10:03:06;;;;;;;8.27;7.47;;;29.70;97.30;;;;;;5072203;28;20119;-72
2023/08/19 10:05:39;;;;;;;9.13;7.22;;;29.60;96.70;;;;;;5076587;28;20201;-70
2023/08/19 10:08:08;;;;;;;8.88;7.60;;;29.60;97.50;;;;;;5072193;28;20032;-71
2023/08/19 10:10:38;;;;;;;8.52;7.60;;;29.80;97.10;;;;;;5075654;28;20028;-71
2023/08/19 10:13:06;;;;;;;7.97;7.28;;;29.90;97.20;;;;;;5076513;28;20101;-71
2023/08/19 10:15:33;;;;;;;7.93;7.03;;;29.90;97.40;;;;;;5078073;28;20540;-71
2023/08/19 10:18:03;;;;;;;7.75;7.05;;;29.90;96.00;;;;;;5072998;28;20085;-72
2023/08/19 10:20:31;;;;;;;8.95;8.15;;;30.00;96.50;;;;;;5070473;28;20063;-72
2023/08/19 10:22:59;;;;;;;7.53;6.75;;;29.90;96.60;;;;;;5069474;28;20045;-72
2023/08/19 10:25:25;;;;;;;9.52;7.32;;;30.00;96.50;;;;;;5077167;28;20567;-71
2023/08/19 10:27:51;;;;;;;8.70;7.80;;;30.20;96.30;;;;;;5074017;28;20039;-71
2023/08/19 10:30:28;;;;;;;8.15;7.38;;;30.30;96.30;;;;;;5077365;28;20048;-72
2023/08/19 10:32:53;;;;;;;8.85;6.97;;;30.30;97.30;;;;;;5076086;28;20025;-71
2023/08/19 10:35:19;;;;;;;8.15;7.13;;;30.40;95.70;;;;;;5073424;28;20029;-71
2023/08/19 10:37:50;;;;;;;9.18;6.40;;;30.50;94.50;;;;;;5075484;28;20024;-72
2023/08/19 10:40:24;;;;;;;7.63;6.93;;;30.40;93.50;;;;;;5076455;28;20024;-71
2023/08/19 10:43:00;;;;;;;8.80;7.13;;;30.40;94.70;;;;;;5073174;28;20036;-71
2023/08/19 10:45:33;;;;;;;7.20;6.50;;;30.50;94.20;;;;;;5067830;28;20032;-71
2023/08/19 10:47:59;;;;;;;7.90;7.10;;;30.40;94.40;;;;;;5075488;28;20035;-71
2023/08/19 10:50:25;;;;;;;7.25;6.50;;;30.40;95.10;;;;;;5073720;28;20036;-71
2023/08/19 10:53:03;;;;;;;8.18;6.50;;;30.40;95.00;;;;;;5073020;28;20043;-71
2023/08/19 10:55:51;;;;;;;6.97;6.32;;;30.50;95.10;;;;;;5076870;28;20024;-71
2023/08/19 10:58:18;;;;;;;8.13;6.30;;;30.50;92.20;;;;;;5069982;28;20036;-71
2023/08/19 11:00:45;;;;;;;7.18;6.25;;;30.40;92.30;;;;;;5072854;28;20071;-71
2023/08/19 11:03:12;;;;;;;8.85;6.03;;;30.40;91.90;;;;;;5076379;28;20032;-71
2023/08/19 11:05:51;;;;;;;6.75;6.15;;;30.50;92.50;;;;;;5072915;28;20575;-71
2023/08/19 11:08:17;;;;;;;8.18;5.45;;;30.50;92.50;;;;;;5072370;28;20041;-70
2023/08/19 11:10:46;;;;;;;6.70;6.10;;;30.50;92.60;;;;;;5072785;28;20059;-72
2023/08/19 11:13:13;;;;;;;7.70;6.20;;;30.60;93.00;;;;;;5073848;28;20067;-70
2023/08/19 11:15:40;;;;;;;7.47;6.15;;;30.60;91.20;;;;;;5074955;28;20111;-71
2023/08/19 11:18:06;;;;;;;7.55;6.85;;;30.50;91.90;;;;;;5074544;28;20035;-71
2023/08/19 11:20:32;;;;;;;7.85;6.00;;;30.60;92.00;;;;;;5070716;28;20043;-71
2023/08/19 11:22:58;;;;;;;7.90;6.00;;;30.50;91.00;;;;;;5074952;28;20033;-70
2023/08/19 11:25:34;;;;;;;9.02;6.10;;;30.50;91.00;;;;;;5074661;28;20083;-71
2023/08/19 11:28:00;;;;;;;6.85;6.22;;;30.50;90.50;;;;;;5072099;28;20032;-70
2023/08/19 11:30:26;;;;;;;6.60;6.00;;;30.60;90.80;;;;;;5076445;28;20039;-71
2023/08/19 11:32:51;;;;;;;10.05;6.18;;;30.70;90.70;;;;;;5073053;28;20021;-72
2023/08/19 11:35:17;;;;;;;7.07;6.38;;;30.60;89.60;;;;;;5075536;28;20495;-72
2023/08/19 11:37:44;;;;;;;9.10;6.40;;;30.60;90.50;;;;;;5066696;28;20023;-71
2023/08/19 11:40:13;;;;;;;7.47;5.78;;;30.60;91.10;;;;;;5072851;28;20066;-72
2023/08/19 11:42:39;;;;;;;6.93;6.00;;;30.70;90.40;;;;;;5071879;28;20111;-72
2023/08/19 11:45:11;;;;;;;6.72;6.10;;;30.70;90.40;;;;;;5074232;28;20024;-72
2023/08/19 11:47:37;;;;;;;7.07;6.38;;;30.70;91.00;;;;;;5065540;28;20565;-71
2023/08/19 11:50:04;;;;;;;6.47;5.88;;;30.70;89.70;;;;;;5072625;28;20044;-72
2023/08/19 11:52:32;;;;;;;9.73;6.18;;;30.70;90.40;;;;;;5075627;28;20843;-71
2023/08/19 11:55:03;;;;;;;6.40;5.80;;;30.70;89.70;;;;;;5070975;28;20035;-72
2023/08/19 11:57:37;;;;;;;9.50;6.82;;;30.70;91.00;;;;;;5074093;28;20031;-72
2023/08/19 12:00:04;;;;;;;7.28;6.57;;;30.80;90.30;;;;;;5074034;28;20053;-71
2023/08/19 12:02:38;;;;;;;6.93;6.20;;;30.90;89.90;;;;;;5070465;28;20040;-72
2023/08/19 12:05:04;;;;;;;8.73;6.93;;;31.00;90.00;;;;;;5069697;28;20064;-71
2023/08/19 12:07:30;;;;;;;7.63;6.72;;;31.00;88.10;;;;;;5086937;28;20036;-71
2023/08/19 12:09:59;;;;;;;7.53;6.78;;;31.00;88.50;;;;;;5072880;28;20043;-72
2023/08/19 12:12:28;;;;;;;10.23;6.65;;;31.00;89.10;;;;;;5075054;28;20044;-71
2023/08/19 12:14:54;;;;;;;7.20;6.60;;;31.00;87.50;;;;;;5073030;28;20045;-72
2023/08/19 12:17:21;;;;;;;9.45;6.97;;;31.10;89.40;;;;;;5074572;28;20024;-72
2023/08/19 12:19:47;;;;;;;8.57;7.10;;;31.20;88.60;;;;;;5072517;28;20040;-72
2023/08/19 12:22:13;;;;;;;7.63;6.93;;;31.20;88.30;;;;;;5071136;28;20039;-72
2023/08/19 12:24:41;;;;;;;9.25;6.90;;;31.20;86.30;;;;;;5072105;28;20100;-72
2023/08/19 12:27:07;;;;;;;7.70;6.13;;;31.20;87.80;;;;;;5073200;28;20024;-71
2023/08/19 12:29:34;;;;;;;7.15;6.45;;;31.20;86.60;;;;;;5074607;28;20107;-72
2023/08/19 12:32:00;;;;;;;7.75;6.93;;;31.30;86.10;;;;;;5073321;28;20028;-72
2023/08/19 12:34:27;;;;;;;7.85;6.30;;;31.30;87.40;;;;;;5076805;28;20024;-72
2023/08/19 12:36:53;;;;;;;8.07;6.30;;;31.30;86.80;;;;;;5073107;28;20090;-70
2023/08/19 12:39:18;;;;;;;7.43;6.63;;;31.40;86.80;;;;;;5071646;28;20033;-71